Perryton, Illinois
Current Conditions -  °F | °C
As of 7:52 PM on Saturday 20 Dec 2014 (Local Time) from KMLI Reporting Station
Haze Haze  
Wind Chill: 30°   Ceiling: 2900
Heat Index: 34°   Visibility: 6mi
Dew Point: 29°   Wind: 5mph
Humidity: 82%   Direction: 130°SE
Pressure: 30.21"   Gusts: NA
Location:  41.343°N, 90.7388°W
Report Text: KMLI 210152Z 13004KT 6SM HZ OVC029 01/M02 A3021 RMK AO2 SLP236 T00111017
Loading
Personal Weather Stations






























Interactive Weather Map New forecast layout! Learn more

10-Day Weather Forecast

Advertisements
Track Severe Weather on mobile